sensor_id;sensor_type;location;lat;lon;timestamp;P1;durP1;ratioP1;P2;durP2;ratioP2
72422;SDS011;71399;54.146;38.734;2024-01-15T00:01:46;6.95;;;3.63;;
72422;SDS011;71399;54.146;38.734;2024-01-15T00:04:12;9.50;;;4.05;;
72422;SDS011;71399;54.146;38.734;2024-01-15T00:06:38;8.25;;;4.13;;
72422;SDS011;71399;54.146;38.734;2024-01-15T00:09:04;10.70;;;4.20;;
72422;SDS011;71399;54.146;38.734;2024-01-15T00:11:32;6.68;;;3.33;;
72422;SDS011;71399;54.146;38.734;2024-01-15T00:13:58;7.45;;;3.50;;
72422;SDS011;71399;54.146;38.734;2024-01-15T00:16:25;9.32;;;4.38;;
72422;SDS011;71399;54.146;38.734;2024-01-15T00:18:51;10.63;;;4.50;;
72422;SDS011;71399;54.146;38.734;2024-01-15T00:21:18;13.73;;;4.45;;
72422;SDS011;71399;54.146;38.734;2024-01-15T00:23:44;12.98;;;5.13;;
72422;SDS011;71399;54.146;38.734;2024-01-15T00:26:11;8.35;;;3.78;;
72422;SDS011;71399;54.146;38.734;2024-01-15T00:28:38;10.75;;;3.90;;
72422;SDS011;71399;54.146;38.734;2024-01-15T00:31:04;10.77;;;4.18;;
72422;SDS011;71399;54.146;38.734;2024-01-15T00:33:31;10.38;;;4.80;;
72422;SDS011;71399;54.146;38.734;2024-01-15T00:35:57;11.55;;;4.75;;
72422;SDS011;71399;54.146;38.734;2024-01-15T00:38:23;8.57;;;4.45;;
72422;SDS011;71399;54.146;38.734;2024-01-15T00:40:50;10.95;;;4.55;;
72422;SDS011;71399;54.146;38.734;2024-01-15T00:43:16;10.00;;;3.83;;
72422;SDS011;71399;54.146;38.734;2024-01-15T00:45:45;12.68;;;3.85;;
72422;SDS011;71399;54.146;38.734;2024-01-15T00:48:11;5.63;;;3.65;;
72422;SDS011;71399;54.146;38.734;2024-01-15T00:50:37;8.55;;;4.00;;
72422;SDS011;71399;54.146;38.734;2024-01-15T00:53:04;11.63;;;5.13;;
72422;SDS011;71399;54.146;38.734;2024-01-15T00:55:30;10.27;;;4.18;;
72422;SDS011;71399;54.146;38.734;2024-01-15T00:57:56;10.80;;;5.10;;
72422;SDS011;71399;54.146;38.734;2024-01-15T01:00:23;11.82;;;4.55;;
72422;SDS011;71399;54.146;38.734;2024-01-15T01:02:49;17.65;;;4.57;;
72422;SDS011;71399;54.146;38.734;2024-01-15T01:05:15;13.43;;;4.53;;
72422;SDS011;71399;54.146;38.734;2024-01-15T01:07:41;10.77;;;4.93;;
72422;SDS011;71399;54.146;38.734;2024-01-15T01:10:08;8.65;;;4.68;;
72422;SDS011;71399;54.146;38.734;2024-01-15T01:12:35;6.50;;;3.80;;
72422;SDS011;71399;54.146;38.734;2024-01-15T01:15:01;13.25;;;4.63;;
72422;SDS011;71399;54.146;38.734;2024-01-15T01:17:31;11.13;;;4.40;;
72422;SDS011;71399;54.146;38.734;2024-01-15T01:19:57;7.43;;;3.08;;
72422;SDS011;71399;54.146;38.734;2024-01-15T01:22:23;8.18;;;4.97;;
72422;SDS011;71399;54.146;38.734;2024-01-15T01:24:49;10.20;;;4.13;;
72422;SDS011;71399;54.146;38.734;2024-01-15T01:27:16;12.02;;;5.25;;
72422;SDS011;71399;54.146;38.734;2024-01-15T01:29:42;14.30;;;5.97;;
72422;SDS011;71399;54.146;38.734;2024-01-15T01:32:08;8.98;;;5.03;;
72422;SDS011;71399;54.146;38.734;2024-01-15T01:34:39;12.52;;;5.15;;
72422;SDS011;71399;54.146;38.734;2024-01-15T01:37:10;14.02;;;5.40;;
72422;SDS011;71399;54.146;38.734;2024-01-15T01:39:43;10.70;;;4.35;;
72422;SDS011;71399;54.146;38.734;2024-01-15T01:42:10;9.35;;;4.22;;
72422;SDS011;71399;54.146;38.734;2024-01-15T01:44:37;9.05;;;4.80;;
72422;SDS011;71399;54.146;38.734;2024-01-15T01:47:04;13.48;;;4.43;;
72422;SDS011;71399;54.146;38.734;2024-01-15T01:49:31;12.75;;;5.22;;
72422;SDS011;71399;54.146;38.734;2024-01-15T01:51:59;10.98;;;4.18;;
72422;SDS011;71399;54.146;38.734;2024-01-15T01:54:28;10.95;;;4.43;;
72422;SDS011;71399;54.146;38.734;2024-01-15T01:56:57;10.48;;;4.47;;
72422;SDS011;71399;54.146;38.734;2024-01-15T01:59:27;11.75;;;5.10;;
72422;SDS011;71399;54.146;38.734;2024-01-15T02:01:54;10.70;;;5.20;;
72422;SDS011;71399;54.146;38.734;2024-01-15T02:04:24;11.13;;;5.40;;
72422;SDS011;71399;54.146;38.734;2024-01-15T02:06:51;10.95;;;4.88;;
72422;SDS011;71399;54.146;38.734;2024-01-15T02:09:17;14.50;;;4.55;;
72422;SDS011;71399;54.146;38.734;2024-01-15T02:11:47;18.08;;;5.22;;
72422;SDS011;71399;54.146;38.734;2024-01-15T02:14:14;10.13;;;5.22;;
72422;SDS011;71399;54.146;38.734;2024-01-15T02:16:41;15.27;;;5.38;;
72422;SDS011;71399;54.146;38.734;2024-01-15T02:19:14;11.93;;;4.40;;
72422;SDS011;71399;54.146;38.734;2024-01-15T02:21:42;9.38;;;3.97;;
72422;SDS011;71399;54.146;38.734;2024-01-15T02:24:08;12.55;;;4.45;;
72422;SDS011;71399;54.146;38.734;2024-01-15T02:26:35;12.20;;;3.53;;
72422;SDS011;71399;54.146;38.734;2024-01-15T02:29:03;18.88;;;6.05;;
72422;SDS011;71399;54.146;38.734;2024-01-15T02:31:31;9.63;;;4.43;;
72422;SDS011;71399;54.146;38.734;2024-01-15T02:33:57;10.48;;;4.72;;
72422;SDS011;71399;54.146;38.734;2024-01-15T02:36:24;8.48;;;4.35;;
72422;SDS011;71399;54.146;38.734;2024-01-15T02:38:51;11.57;;;4.80;;
72422;SDS011;71399;54.146;38.734;2024-01-15T02:41:17;16.52;;;5.88;;
72422;SDS011;71399;54.146;38.734;2024-01-15T02:43:43;9.95;;;4.57;;
72422;SDS011;71399;54.146;38.734;2024-01-15T02:46:10;9.57;;;4.47;;
72422;SDS011;71399;54.146;38.734;2024-01-15T02:48:36;14.13;;;5.57;;
72422;SDS011;71399;54.146;38.734;2024-01-15T02:51:03;14.90;;;5.43;;
72422;SDS011;71399;54.146;38.734;2024-01-15T02:53:29;10.40;;;5.15;;
72422;SDS011;71399;54.146;38.734;2024-01-15T02:55:55;10.68;;;5.13;;
72422;SDS011;71399;54.146;38.734;2024-01-15T02:58:22;9.63;;;3.55;;
72422;SDS011;71399;54.146;38.734;2024-01-15T03:00:48;15.07;;;5.88;;
72422;SDS011;71399;54.146;38.734;2024-01-15T03:03:14;8.80;;;3.97;;
72422;SDS011;71399;54.146;38.734;2024-01-15T03:05:40;12.50;;;5.10;;
72422;SDS011;71399;54.146;38.734;2024-01-15T03:08:08;11.52;;;5.80;;
72422;SDS011;71399;54.146;38.734;2024-01-15T03:10:34;12.55;;;5.05;;
72422;SDS011;71399;54.146;38.734;2024-01-15T03:13:00;12.50;;;4.72;;
72422;SDS011;71399;54.146;38.734;2024-01-15T03:15:26;13.98;;;5.68;;
72422;SDS011;71399;54.146;38.734;2024-01-15T03:17:53;15.02;;;5.53;;
72422;SDS011;71399;54.146;38.734;2024-01-15T03:20:19;8.35;;;4.60;;
72422;SDS011;71399;54.146;38.734;2024-01-15T03:22:45;20.88;;;6.13;;
72422;SDS011;71399;54.146;38.734;2024-01-15T03:25:12;12.95;;;5.82;;
72422;SDS011;71399;54.146;38.734;2024-01-15T03:27:38;13.90;;;4.43;;
72422;SDS011;71399;54.146;38.734;2024-01-15T03:30:04;10.57;;;4.70;;
72422;SDS011;71399;54.146;38.734;2024-01-15T03:32:31;11.50;;;4.70;;
72422;SDS011;71399;54.146;38.734;2024-01-15T03:34:57;10.30;;;4.15;;
72422;SDS011;71399;54.146;38.734;2024-01-15T03:37:24;13.48;;;5.75;;
72422;SDS011;71399;54.146;38.734;2024-01-15T03:39:50;13.27;;;4.82;;
72422;SDS011;71399;54.146;38.734;2024-01-15T03:42:16;14.63;;;6.28;;
72422;SDS011;71399;54.146;38.734;2024-01-15T03:44:43;10.65;;;4.82;;
72422;SDS011;71399;54.146;38.734;2024-01-15T03:47:09;8.38;;;4.07;;
72422;SDS011;71399;54.146;38.734;2024-01-15T03:49:36;14.25;;;5.07;;
72422;SDS011;71399;54.146;38.734;2024-01-15T03:52:04;10.20;;;5.32;;
72422;SDS011;71399;54.146;38.734;2024-01-15T03:54:30;14.75;;;5.88;;
72422;SDS011;71399;54.146;38.734;2024-01-15T03:56:56;12.35;;;4.70;;
72422;SDS011;71399;54.146;38.734;2024-01-15T03:59:23;16.08;;;4.60;;
72422;SDS011;71399;54.146;38.734;2024-01-15T04:01:49;15.43;;;5.45;;
72422;SDS011;71399;54.146;38.734;2024-01-15T04:04:19;12.73;;;4.88;;
72422;SDS011;71399;54.146;38.734;2024-01-15T04:06:45;12.32;;;5.75;;
72422;SDS011;71399;54.146;38.734;2024-01-15T04:09:15;17.50;;;6.03;;
72422;SDS011;71399;54.146;38.734;2024-01-15T04:11:42;13.90;;;5.43;;
72422;SDS011;71399;54.146;38.734;2024-01-15T04:14:08;11.27;;;4.85;;
72422;SDS011;71399;54.146;38.734;2024-01-15T04:16:34;15.85;;;5.63;;
72422;SDS011;71399;54.146;38.734;2024-01-15T04:19:01;13.02;;;5.72;;
72422;SDS011;71399;54.146;38.734;2024-01-15T04:21:27;11.68;;;5.85;;
72422;SDS011;71399;54.146;38.734;2024-01-15T04:23:54;14.00;;;5.07;;
72422;SDS011;71399;54.146;38.734;2024-01-15T04:26:20;12.77;;;4.45;;
72422;SDS011;71399;54.146;38.734;2024-01-15T04:28:46;13.27;;;5.57;;
72422;SDS011;71399;54.146;38.734;2024-01-15T04:31:25;12.95;;;6.15;;
72422;SDS011;71399;54.146;38.734;2024-01-15T04:33:52;10.77;;;4.03;;
72422;SDS011;71399;54.146;38.734;2024-01-15T04:36:19;14.25;;;5.10;;
72422;SDS011;71399;54.146;38.734;2024-01-15T04:38:45;10.77;;;4.88;;
72422;SDS011;71399;54.146;38.734;2024-01-15T04:41:12;13.88;;;5.35;;
72422;SDS011;71399;54.146;38.734;2024-01-15T04:43:40;14.63;;;5.45;;
72422;SDS011;71399;54.146;38.734;2024-01-15T04:46:07;10.85;;;4.35;;
72422;SDS011;71399;54.146;38.734;2024-01-15T04:48:33;16.25;;;5.53;;
72422;SDS011;71399;54.146;38.734;2024-01-15T04:51:00;12.82;;;4.78;;
72422;SDS011;71399;54.146;38.734;2024-01-15T04:53:26;18.35;;;6.15;;
72422;SDS011;71399;54.146;38.734;2024-01-15T04:55:53;11.50;;;5.38;;
72422;SDS011;71399;54.146;38.734;2024-01-15T04:58:19;9.55;;;4.82;;
72422;SDS011;71399;54.146;38.734;2024-01-15T05:00:46;11.30;;;5.13;;
72422;SDS011;71399;54.146;38.734;2024-01-15T05:03:12;9.90;;;4.85;;
72422;SDS011;71399;54.146;38.734;2024-01-15T05:05:38;12.73;;;5.53;;
72422;SDS011;71399;54.146;38.734;2024-01-15T05:08:04;7.78;;;4.40;;
72422;SDS011;71399;54.146;38.734;2024-01-15T05:10:31;10.25;;;5.28;;
72422;SDS011;71399;54.146;38.734;2024-01-15T05:12:57;16.75;;;5.55;;
72422;SDS011;71399;54.146;38.734;2024-01-15T05:15:24;15.07;;;5.18;;
72422;SDS011;71399;54.146;38.734;2024-01-15T05:17:50;14.32;;;5.47;;
72422;SDS011;71399;54.146;38.734;2024-01-15T05:20:16;13.38;;;5.43;;
72422;SDS011;71399;54.146;38.734;2024-01-15T05:22:43;11.35;;;4.72;;
72422;SDS011;71399;54.146;38.734;2024-01-15T05:25:09;15.10;;;5.28;;
72422;SDS011;71399;54.146;38.734;2024-01-15T05:27:35;13.57;;;5.85;;
72422;SDS011;71399;54.146;38.734;2024-01-15T05:30:02;12.20;;;5.60;;
72422;SDS011;71399;54.146;38.734;2024-01-15T05:32:29;8.98;;;4.18;;
72422;SDS011;71399;54.146;38.734;2024-01-15T05:34:56;9.68;;;4.78;;
72422;SDS011;71399;54.146;38.734;2024-01-15T05:37:22;11.02;;;5.00;;
72422;SDS011;71399;54.146;38.734;2024-01-15T05:39:48;11.82;;;5.10;;
72422;SDS011;71399;54.146;38.734;2024-01-15T05:42:15;11.25;;;5.28;;
72422;SDS011;71399;54.146;38.734;2024-01-15T05:44:41;12.27;;;5.00;;
72422;SDS011;71399;54.146;38.734;2024-01-15T05:47:07;14.45;;;5.00;;
72422;SDS011;71399;54.146;38.734;2024-01-15T05:49:34;11.48;;;4.00;;
72422;SDS011;71399;54.146;38.734;2024-01-15T05:52:01;13.80;;;5.90;;
72422;SDS011;71399;54.146;38.734;2024-01-15T05:54:28;10.70;;;5.30;;
72422;SDS011;71399;54.146;38.734;2024-01-15T05:56:55;14.68;;;5.70;;
72422;SDS011;71399;54.146;38.734;2024-01-15T05:59:22;10.45;;;4.65;;
72422;SDS011;71399;54.146;38.734;2024-01-15T06:01:49;9.90;;;4.80;;
72422;SDS011;71399;54.146;38.734;2024-01-15T06:04:15;10.93;;;4.88;;
72422;SDS011;71399;54.146;38.734;2024-01-15T06:06:42;13.30;;;5.72;;
72422;SDS011;71399;54.146;38.734;2024-01-15T06:09:09;11.63;;;5.15;;
72422;SDS011;71399;54.146;38.734;2024-01-15T06:11:35;12.70;;;5.07;;
72422;SDS011;71399;54.146;38.734;2024-01-15T06:14:02;10.27;;;5.93;;
72422;SDS011;71399;54.146;38.734;2024-01-15T06:16:28;10.20;;;4.55;;
72422;SDS011;71399;54.146;38.734;2024-01-15T06:18:55;11.73;;;5.15;;
72422;SDS011;71399;54.146;38.734;2024-01-15T06:21:21;11.55;;;5.13;;
72422;SDS011;71399;54.146;38.734;2024-01-15T06:23:47;13.30;;;6.47;;
72422;SDS011;71399;54.146;38.734;2024-01-15T06:26:13;14.70;;;5.45;;
72422;SDS011;71399;54.146;38.734;2024-01-15T06:28:40;12.05;;;5.15;;
72422;SDS011;71399;54.146;38.734;2024-01-15T06:31:06;13.65;;;5.70;;
72422;SDS011;71399;54.146;38.734;2024-01-15T06:33:33;11.52;;;5.40;;
72422;SDS011;71399;54.146;38.734;2024-01-15T06:36:00;13.93;;;6.07;;
72422;SDS011;71399;54.146;38.734;2024-01-15T06:38:26;11.68;;;4.97;;
72422;SDS011;71399;54.146;38.734;2024-01-15T06:40:52;15.02;;;5.53;;
72422;SDS011;71399;54.146;38.734;2024-01-15T06:43:19;14.13;;;6.07;;
72422;SDS011;71399;54.146;38.734;2024-01-15T06:45:45;17.27;;;5.88;;
72422;SDS011;71399;54.146;38.734;2024-01-15T06:48:12;9.13;;;4.30;;
72422;SDS011;71399;54.146;38.734;2024-01-15T06:50:42;11.05;;;4.82;;
72422;SDS011;71399;54.146;38.734;2024-01-15T06:53:09;12.80;;;5.68;;
72422;SDS011;71399;54.146;38.734;2024-01-15T06:55:35;11.50;;;5.25;;
72422;SDS011;71399;54.146;38.734;2024-01-15T06:58:01;13.95;;;5.63;;
72422;SDS011;71399;54.146;38.734;2024-01-15T07:00:27;9.75;;;4.68;;
72422;SDS011;71399;54.146;38.734;2024-01-15T07:02:54;13.43;;;6.18;;
72422;SDS011;71399;54.146;38.734;2024-01-15T07:05:21;13.27;;;6.55;;
72422;SDS011;71399;54.146;38.734;2024-01-15T07:07:47;13.55;;;5.05;;
72422;SDS011;71399;54.146;38.734;2024-01-15T07:10:13;12.10;;;5.68;;
72422;SDS011;71399;54.146;38.734;2024-01-15T07:12:43;16.10;;;5.40;;
72422;SDS011;71399;54.146;38.734;2024-01-15T07:15:09;12.57;;;5.38;;
72422;SDS011;71399;54.146;38.734;2024-01-15T07:17:36;17.50;;;5.43;;
72422;SDS011;71399;54.146;38.734;2024-01-15T07:20:06;17.42;;;6.32;;
72422;SDS011;71399;54.146;38.734;2024-01-15T07:22:36;14.57;;;5.50;;
72422;SDS011;71399;54.146;38.734;2024-01-15T07:25:03;16.80;;;6.00;;
72422;SDS011;71399;54.146;38.734;2024-01-15T07:27:34;14.65;;;6.00;;
72422;SDS011;71399;54.146;38.734;2024-01-15T07:30:00;18.27;;;6.60;;
72422;SDS011;71399;54.146;38.734;2024-01-15T07:32:27;16.27;;;6.68;;
72422;SDS011;71399;54.146;38.734;2024-01-15T07:34:53;15.60;;;6.55;;
72422;SDS011;71399;54.146;38.734;2024-01-15T07:37:20;12.15;;;5.72;;
72422;SDS011;71399;54.146;38.734;2024-01-15T07:39:46;16.83;;;6.18;;
72422;SDS011;71399;54.146;38.734;2024-01-15T07:42:12;19.15;;;7.22;;
72422;SDS011;71399;54.146;38.734;2024-01-15T07:44:38;14.40;;;6.35;;
72422;SDS011;71399;54.146;38.734;2024-01-15T07:47:06;16.08;;;6.05;;
72422;SDS011;71399;54.146;38.734;2024-01-15T07:49:32;17.25;;;6.35;;
72422;SDS011;71399;54.146;38.734;2024-01-15T07:51:58;16.00;;;6.40;;
72422;SDS011;71399;54.146;38.734;2024-01-15T07:54:24;16.08;;;6.50;;
72422;SDS011;71399;54.146;38.734;2024-01-15T07:56:58;15.88;;;6.57;;
72422;SDS011;71399;54.146;38.734;2024-01-15T07:59:26;13.65;;;6.35;;
72422;SDS011;71399;54.146;38.734;2024-01-15T08:01:53;17.63;;;6.57;;
72422;SDS011;71399;54.146;38.734;2024-01-15T08:04:19;16.23;;;7.35;;
72422;SDS011;71399;54.146;38.734;2024-01-15T08:06:48;14.90;;;6.60;;
72422;SDS011;71399;54.146;38.734;2024-01-15T08:09:14;15.52;;;7.20;;
72422;SDS011;71399;54.146;38.734;2024-01-15T08:11:41;17.90;;;6.57;;
72422;SDS011;71399;54.146;38.734;2024-01-15T08:14:08;16.25;;;6.95;;
72422;SDS011;71399;54.146;38.734;2024-01-15T08:16:36;18.23;;;7.22;;
72422;SDS011;71399;54.146;38.734;2024-01-15T08:19:02;16.42;;;6.47;;
72422;SDS011;71399;54.146;38.734;2024-01-15T08:21:29;16.20;;;6.93;;
72422;SDS011;71399;54.146;38.734;2024-01-15T08:23:58;16.05;;;7.32;;
72422;SDS011;71399;54.146;38.734;2024-01-15T08:26:25;17.23;;;7.57;;
72422;SDS011;71399;54.146;38.734;2024-01-15T08:28:52;15.20;;;6.70;;
72422;SDS011;71399;54.146;38.734;2024-01-15T08:31:18;13.77;;;6.38;;
72422;SDS011;71399;54.146;38.734;2024-01-15T08:33:44;17.08;;;6.75;;
72422;SDS011;71399;54.146;38.734;2024-01-15T08:36:12;19.48;;;7.22;;
72422;SDS011;71399;54.146;38.734;2024-01-15T08:38:38;17.17;;;7.57;;
72422;SDS011;71399;54.146;38.734;2024-01-15T08:41:05;16.42;;;6.55;;
72422;SDS011;71399;54.146;38.734;2024-01-15T08:43:31;15.90;;;7.32;;
72422;SDS011;71399;54.146;38.734;2024-01-15T08:45:57;16.27;;;6.93;;
72422;SDS011;71399;54.146;38.734;2024-01-15T08:48:32;19.23;;;7.43;;
72422;SDS011;71399;54.146;38.734;2024-01-15T08:50:58;16.70;;;7.63;;
72422;SDS011;71399;54.146;38.734;2024-01-15T08:53:25;17.55;;;6.35;;
72422;SDS011;71399;54.146;38.734;2024-01-15T08:55:51;20.02;;;7.70;;
72422;SDS011;71399;54.146;38.734;2024-01-15T08:58:17;18.33;;;8.10;;
72422;SDS011;71399;54.146;38.734;2024-01-15T09:00:44;20.58;;;7.22;;
72422;SDS011;71399;54.146;38.734;2024-01-15T09:03:10;16.05;;;6.38;;
72422;SDS011;71399;54.146;38.734;2024-01-15T09:05:36;16.90;;;6.78;;
72422;SDS011;71399;54.146;38.734;2024-01-15T09:08:03;15.95;;;6.75;;
72422;SDS011;71399;54.146;38.734;2024-01-15T09:10:29;22.00;;;8.52;;
72422;SDS011;71399;54.146;38.734;2024-01-15T09:12:55;18.75;;;7.22;;
72422;SDS011;71399;54.146;38.734;2024-01-15T09:15:22;16.58;;;7.07;;
72422;SDS011;71399;54.146;38.734;2024-01-15T09:17:48;20.52;;;7.68;;
72422;SDS011;71399;54.146;38.734;2024-01-15T09:20:15;19.58;;;7.57;;
72422;SDS011;71399;54.146;38.734;2024-01-15T09:22:41;16.30;;;6.90;;
72422;SDS011;71399;54.146;38.734;2024-01-15T09:25:08;14.50;;;7.13;;
72422;SDS011;71399;54.146;38.734;2024-01-15T09:27:35;18.77;;;7.07;;
72422;SDS011;71399;54.146;38.734;2024-01-15T09:30:02;15.95;;;6.93;;
72422;SDS011;71399;54.146;38.734;2024-01-15T09:32:32;16.20;;;6.93;;
72422;SDS011;71399;54.146;38.734;2024-01-15T09:34:59;21.45;;;7.85;;
72422;SDS011;71399;54.146;38.734;2024-01-15T09:37:25;20.55;;;7.57;;
72422;SDS011;71399;54.146;38.734;2024-01-15T09:39:52;15.43;;;7.10;;
72422;SDS011;71399;54.146;38.734;2024-01-15T09:42:19;15.13;;;6.53;;
72422;SDS011;71399;54.146;38.734;2024-01-15T09:44:46;19.35;;;8.05;;
72422;SDS011;71399;54.146;38.734;2024-01-15T09:47:13;18.77;;;8.02;;
72422;SDS011;71399;54.146;38.734;2024-01-15T09:49:42;19.05;;;7.18;;
72422;SDS011;71399;54.146;38.734;2024-01-15T09:52:09;14.38;;;6.93;;
72422;SDS011;71399;54.146;38.734;2024-01-15T09:54:37;15.20;;;6.40;;
72422;SDS011;71399;54.146;38.734;2024-01-15T09:57:04;14.73;;;6.70;;
72422;SDS011;71399;54.146;38.734;2024-01-15T09:59:32;21.67;;;7.88;;
72422;SDS011;71399;54.146;38.734;2024-01-15T10:02:01;16.23;;;6.93;;
72422;SDS011;71399;54.146;38.734;2024-01-15T10:04:28;14.95;;;7.00;;
72422;SDS011;71399;54.146;38.734;2024-01-15T10:06:55;17.77;;;8.00;;
72422;SDS011;71399;54.146;38.734;2024-01-15T10:09:23;19.20;;;7.28;;
72422;SDS011;71399;54.146;38.734;2024-01-15T10:11:50;17.00;;;6.88;;
72422;SDS011;71399;54.146;38.734;2024-01-15T10:14:16;19.52;;;7.70;;
72422;SDS011;71399;54.146;38.734;2024-01-15T10:16:43;21.50;;;7.65;;
72422;SDS011;71399;54.146;38.734;2024-01-15T10:19:09;17.52;;;7.20;;
72422;SDS011;71399;54.146;38.734;2024-01-15T10:21:35;14.07;;;7.28;;
72422;SDS011;71399;54.146;38.734;2024-01-15T10:24:03;19.08;;;6.47;;
72422;SDS011;71399;54.146;38.734;2024-01-15T10:26:31;16.60;;;6.80;;
72422;SDS011;71399;54.146;38.734;2024-01-15T10:28:58;16.73;;;6.70;;
72422;SDS011;71399;54.146;38.734;2024-01-15T10:31:26;15.02;;;7.40;;
72422;SDS011;71399;54.146;38.734;2024-01-15T10:33:53;14.68;;;7.20;;
72422;SDS011;71399;54.146;38.734;2024-01-15T10:36:19;18.02;;;7.95;;
72422;SDS011;71399;54.146;38.734;2024-01-15T10:38:46;14.73;;;7.32;;
72422;SDS011;71399;54.146;38.734;2024-01-15T10:41:13;17.02;;;7.35;;
72422;SDS011;71399;54.146;38.734;2024-01-15T10:43:39;21.05;;;8.45;;
72422;SDS011;71399;54.146;38.734;2024-01-15T10:46:08;17.88;;;6.97;;
72422;SDS011;71399;54.146;38.734;2024-01-15T10:48:36;19.60;;;8.05;;
72422;SDS011;71399;54.146;38.734;2024-01-15T10:51:04;18.75;;;7.38;;
72422;SDS011;71399;54.146;38.734;2024-01-15T10:53:38;16.50;;;7.75;;
72422;SDS011;71399;54.146;38.734;2024-01-15T10:56:06;21.33;;;8.02;;
72422;SDS011;71399;54.146;38.734;2024-01-15T10:58:33;18.67;;;7.70;;
72422;SDS011;71399;54.146;38.734;2024-01-15T11:01:01;23.48;;;9.68;;
72422;SDS011;71399;54.146;38.734;2024-01-15T11:03:28;26.17;;;9.65;;
72422;SDS011;71399;54.146;38.734;2024-01-15T11:05:55;22.85;;;9.30;;
72422;SDS011;71399;54.146;38.734;2024-01-15T11:08:21;17.63;;;7.20;;
72422;SDS011;71399;54.146;38.734;2024-01-15T11:10:50;21.13;;;9.25;;
72422;SDS011;71399;54.146;38.734;2024-01-15T11:13:22;16.48;;;6.97;;
72422;SDS011;71399;54.146;38.734;2024-01-15T11:16:07;19.42;;;7.55;;
72422;SDS011;71399;54.146;38.734;2024-01-15T11:18:42;21.15;;;8.63;;
72422;SDS011;71399;54.146;38.734;2024-01-15T11:21:28;18.92;;;8.13;;
72422;SDS011;71399;54.146;38.734;2024-01-15T11:23:58;16.63;;;7.15;;
72422;SDS011;71399;54.146;38.734;2024-01-15T11:26:33;18.88;;;8.35;;
72422;SDS011;71399;54.146;38.734;2024-01-15T11:29:05;17.85;;;6.95;;
72422;SDS011;71399;54.146;38.734;2024-01-15T11:34:06;24.08;;;8.77;;
72422;SDS011;71399;54.146;38.734;2024-01-15T11:41:55;17.50;;;8.05;;
72422;SDS011;71399;54.146;38.734;2024-01-15T11:44:27;19.17;;;7.60;;
72422;SDS011;71399;54.146;38.734;2024-01-15T11:52:18;20.73;;;7.82;;
72422;SDS011;71399;54.146;38.734;2024-01-15T11:57:51;21.67;;;8.35;;
72422;SDS011;71399;54.146;38.734;2024-01-15T12:00:20;22.70;;;7.93;;
72422;SDS011;71399;54.146;38.734;2024-01-15T12:02:49;19.42;;;7.32;;
72422;SDS011;71399;54.146;38.734;2024-01-15T12:05:17;14.68;;;7.10;;
72422;SDS011;71399;54.146;38.734;2024-01-15T12:07:47;18.75;;;7.93;;
72422;SDS011;71399;54.146;38.734;2024-01-15T12:10:18;17.35;;;7.30;;
72422;SDS011;71399;54.146;38.734;2024-01-15T12:12:53;19.77;;;7.47;;
72422;SDS011;71399;54.146;38.734;2024-01-15T12:15:27;21.90;;;7.75;;
72422;SDS011;71399;54.146;38.734;2024-01-15T12:17:55;21.58;;;8.32;;
72422;SDS011;71399;54.146;38.734;2024-01-15T12:20:26;17.73;;;7.35;;
72422;SDS011;71399;54.146;38.734;2024-01-15T12:22:53;18.20;;;8.27;;
72422;SDS011;71399;54.146;38.734;2024-01-15T12:25:21;16.73;;;8.50;;
72422;SDS011;71399;54.146;38.734;2024-01-15T12:27:48;17.25;;;7.75;;
72422;SDS011;71399;54.146;38.734;2024-01-15T12:30:16;24.55;;;8.60;;
72422;SDS011;71399;54.146;38.734;2024-01-15T12:32:43;18.63;;;8.32;;
72422;SDS011;71399;54.146;38.734;2024-01-15T12:35:09;19.13;;;8.05;;
72422;SDS011;71399;54.146;38.734;2024-01-15T12:37:37;21.77;;;8.50;;
72422;SDS011;71399;54.146;38.734;2024-01-15T12:40:09;20.63;;;8.20;;
72422;SDS011;71399;54.146;38.734;2024-01-15T12:42:37;24.52;;;9.18;;
72422;SDS011;71399;54.146;38.734;2024-01-15T12:45:05;21.92;;;8.85;;
72422;SDS011;71399;54.146;38.734;2024-01-15T12:47:32;19.95;;;8.85;;
72422;SDS011;71399;54.146;38.734;2024-01-15T12:49:58;24.55;;;9.07;;
72422;SDS011;71399;54.146;38.734;2024-01-15T12:52:29;21.20;;;8.85;;
72422;SDS011;71399;54.146;38.734;2024-01-15T12:54:55;23.20;;;10.35;;
72422;SDS011;71399;54.146;38.734;2024-01-15T12:57:22;19.90;;;8.68;;
72422;SDS011;71399;54.146;38.734;2024-01-15T12:59:48;22.33;;;8.68;;
72422;SDS011;71399;54.146;38.734;2024-01-15T13:02:18;23.77;;;9.07;;
72422;SDS011;71399;54.146;38.734;2024-01-15T13:04:46;24.75;;;9.25;;
72422;SDS011;71399;54.146;38.734;2024-01-15T13:07:12;24.73;;;9.70;;
72422;SDS011;71399;54.146;38.734;2024-01-15T13:09:38;23.95;;;9.48;;
72422;SDS011;71399;54.146;38.734;2024-01-15T13:12:05;21.63;;;8.68;;
72422;SDS011;71399;54.146;38.734;2024-01-15T13:14:32;22.65;;;8.55;;
72422;SDS011;71399;54.146;38.734;2024-01-15T13:16:58;20.77;;;8.45;;
72422;SDS011;71399;54.146;38.734;2024-01-15T13:19:25;18.85;;;8.60;;
72422;SDS011;71399;54.146;38.734;2024-01-15T13:21:51;21.58;;;9.00;;
72422;SDS011;71399;54.146;38.734;2024-01-15T13:24:20;23.13;;;9.30;;
72422;SDS011;71399;54.146;38.734;2024-01-15T13:26:48;21.33;;;8.77;;
72422;SDS011;71399;54.146;38.734;2024-01-15T13:29:14;24.00;;;9.95;;
72422;SDS011;71399;54.146;38.734;2024-01-15T13:31:41;20.40;;;9.18;;
72422;SDS011;71399;54.146;38.734;2024-01-15T13:34:08;22.42;;;9.48;;
72422;SDS011;71399;54.146;38.734;2024-01-15T13:36:35;22.35;;;8.63;;
72422;SDS011;71399;54.146;38.734;2024-01-15T13:39:01;20.52;;;9.07;;
72422;SDS011;71399;54.146;38.734;2024-01-15T13:41:27;28.20;;;9.95;;
72422;SDS011;71399;54.146;38.734;2024-01-15T13:43:55;24.83;;;9.95;;
72422;SDS011;71399;54.146;38.734;2024-01-15T13:46:23;20.27;;;9.05;;
72422;SDS011;71399;54.146;38.734;2024-01-15T13:48:52;21.75;;;9.07;;
72422;SDS011;71399;54.146;38.734;2024-01-15T13:51:21;25.55;;;8.82;;
72422;SDS011;71399;54.146;38.734;2024-01-15T13:53:50;24.23;;;9.10;;
72422;SDS011;71399;54.146;38.734;2024-01-15T13:56:19;24.17;;;9.02;;
72422;SDS011;71399;54.146;38.734;2024-01-15T13:58:46;22.02;;;9.75;;
72422;SDS011;71399;54.146;38.734;2024-01-15T14:01:13;25.55;;;9.90;;
72422;SDS011;71399;54.146;38.734;2024-01-15T14:03:41;23.83;;;8.57;;
72422;SDS011;71399;54.146;38.734;2024-01-15T14:06:07;21.02;;;8.50;;
72422;SDS011;71399;54.146;38.734;2024-01-15T14:08:35;19.00;;;8.60;;
72422;SDS011;71399;54.146;38.734;2024-01-15T14:11:03;23.33;;;10.10;;
72422;SDS011;71399;54.146;38.734;2024-01-15T14:13:32;25.38;;;9.98;;
72422;SDS011;71399;54.146;38.734;2024-01-15T14:15:59;19.00;;;8.98;;
72422;SDS011;71399;54.146;38.734;2024-01-15T14:18:26;26.73;;;10.10;;
72422;SDS011;71399;54.146;38.734;2024-01-15T14:20:53;24.52;;;9.68;;
72422;SDS011;71399;54.146;38.734;2024-01-15T14:23:20;20.95;;;9.30;;
72422;SDS011;71399;54.146;38.734;2024-01-15T14:25:47;24.45;;;9.35;;
72422;SDS011;71399;54.146;38.734;2024-01-15T14:28:13;24.85;;;9.30;;
72422;SDS011;71399;54.146;38.734;2024-01-15T14:30:40;21.75;;;9.88;;
72422;SDS011;71399;54.146;38.734;2024-01-15T14:33:06;26.77;;;9.75;;
72422;SDS011;71399;54.146;38.734;2024-01-15T14:35:32;26.50;;;10.27;;
72422;SDS011;71399;54.146;38.734;2024-01-15T14:37:58;21.05;;;9.90;;
72422;SDS011;71399;54.146;38.734;2024-01-15T14:40:25;23.50;;;10.00;;